Impacts METAR Board
IDs:

KLAX - Los Angeles Intl, CA, US

Updated at: 1900 UTC 08 Feb 2023
Potential Impact None Slight Moderate High
Time 08/07Z 08/08Z 08/09Z 08/10Z 08/11Z 08/12Z 08/13Z 08/14Z 08/15Z 08/16Z 08/17Z 08/18Z 08/19Z
Temp57 57 56 51 51 49 49 49 52 54 61 66 69
Dewpt43 42 39 40 38 38 37 37 34 37 36 34 31
Altim30.22 30.23 30.22 30.22 30.22 30.21 30.21 30.22 30.24 30.25 30.27 30.28 30.27
VIS10 10 10 10 10 10 10 10 10 10 10 10 10
CIG250 250 250 -- -- -- -- -- -- -- -- -- --
CoverBKNBKNBKNSCTSCTSCTFEWFEWFEWFEWFEWCLRCLR
FltCatVFRVFRVFRVFRVFRVFRVFRVFRVFRVFRVFRVFRVFR
WX--------------------------
WDir40090120080110100400000
WSpd4 0 4 4 0 3 5 3 5 0 0 0 3
WGst-- -- -- -- -- -- -- -- -- -- -- -- --
Raw hourly METARs
KLAX 080653Z 04004KT 10SM FEW200 BKN250 14/06 A3022 RMK AO2 SLP231 T01390061
KLAX 080753Z 00000KT 10SM FEW200 BKN250 14/06 A3023 RMK AO2 SLP233 T01390056 401940083
KLAX 080853Z 09004KT 10SM FEW200 BKN250 13/04 A3022 RMK AO2 SLP232 T01330039 50002
KLAX 080953Z 12004KT 10SM FEW200 SCT250 11/04 A3022 RMK AO2 SLP232 T01060044
KLAX 081053Z 00000KT 10SM FEW200 SCT250 11/03 A3022 RMK AO2 SLP230 T01060033
KLAX 081153Z 08003KT 10SM FEW190 FEW240 SCT280 09/03 A3021 RMK AO2 SLP227 T00940033 10150 20083 58006
KLAX 081253Z 11005KT 10SM FEW190 FEW240 09/03 A3021 RMK AO2 SLP229 T00940028
KLAX 081353Z 10003KT 10SM FEW190 FEW240 09/03 A3022 RMK AO2 SLP232 T00940028
KLAX 081453Z 04005KT 10SM FEW190 FEW250 11/01 A3024 RMK AO2 SLP238 T01110011 53012
KLAX 081553Z 00000KT 10SM FEW200 12/03 A3025 RMK AO2 SLP244 T01220028
KLAX 081653Z 00000KT 10SM FEW220 16/02 A3027 RMK AO2 SLP249 T01610022
KLAX 081753Z 00000KT 10SM CLR 19/01 A3028 RMK AO2 SLP251 T01890011 10189 20089 51014
KLAX 081853Z VRB03KT 10SM CLR 21/M01 A3027 RMK AO2 SLP249 T02061006



Page loaded:  19:31 UTC  |   11:31 AM Pacific  |   12:31 PM Mountain  |   01:31 PM Central  |   02:31 PM Eastern

 

ADVISORIES

FORECASTS

FORECASTS

OBSERVATIONS

USER TOOLS

ABOUT US